createdAt,value
2018-05-21T07:19:00.143Z,991.25
2018-05-21T07:19:59.996Z,991.29
2018-05-21T07:20:58.045Z,991.28
2018-05-21T07:21:58.272Z,991.26
2018-05-21T07:22:58.591Z,991.25
2018-05-21T07:23:58.473Z,991.23
2018-05-21T07:24:58.742Z,991.20
2018-05-21T07:25:58.902Z,991.24
2018-05-21T07:26:59.253Z,991.21
2018-05-21T07:27:59.523Z,991.21
2018-05-21T07:28:59.574Z,991.17
2018-05-21T07:29:59.662Z,991.16
2018-05-21T07:30:59.878Z,991.20
2018-05-21T07:31:59.982Z,991.20
2018-05-21T07:33:00.105Z,991.15
2018-05-21T07:34:00.492Z,991.21
2018-05-21T07:35:00.566Z,991.15
2018-05-21T07:36:01.162Z,991.13
2018-05-21T07:37:00.888Z,991.10
2018-05-21T07:38:01.150Z,991.13
2018-05-21T07:39:01.227Z,991.13
2018-05-21T07:40:01.456Z,991.11
2018-05-21T07:41:01.852Z,991.11
2018-05-21T07:42:01.740Z,991.10
2018-05-21T07:43:01.910Z,991.12
2018-05-21T07:44:02.095Z,991.08
2018-05-21T07:45:02.215Z,991.08
2018-05-21T07:46:02.431Z,991.06
2018-05-21T07:47:02.753Z,990.96
2018-05-21T07:48:03.137Z,991.02
2018-05-21T07:49:05.227Z,990.96
2018-05-21T07:50:18.311Z,991.01
2018-05-21T07:51:06.007Z,990.96
2018-05-21T07:52:06.159Z,990.96
2018-05-21T07:53:07.606Z,990.93
2018-05-21T07:54:07.953Z,990.89
2018-05-21T07:55:12.611Z,990.84
2018-05-21T07:56:29.266Z,990.87
2018-05-21T07:57:06.744Z,990.83
2018-05-21T08:39:58.026Z,990.46
2018-05-21T09:04:21.451Z,990.39
2018-05-21T09:05:07.833Z,990.38
2018-05-21T09:06:06.757Z,990.45
2018-05-21T09:07:08.385Z,990.36
2018-05-21T09:08:06.952Z,990.35
2018-05-21T09:09:09.099Z,990.30
2018-05-21T09:10:08.756Z,990.25
2018-05-21T09:11:08.194Z,990.23
2018-05-21T09:12:09.365Z,990.26
2018-05-21T09:13:06.328Z,990.21
2018-05-21T09:14:05.729Z,990.20
2018-05-21T09:15:05.333Z,990.12
2018-05-21T09:16:05.622Z,990.20
2018-05-21T09:17:05.921Z,990.08
2018-05-21T09:18:06.011Z,990.21
2018-05-21T09:19:05.965Z,990.13
2018-05-21T09:20:06.594Z,990.09
2018-05-21T09:21:06.325Z,990.10
2018-05-21T09:22:06.822Z,990.06
2018-05-21T09:23:07.293Z,990.07
2018-05-21T09:24:08.136Z,990.09
2018-05-21T09:25:07.875Z,990.03
2018-05-21T09:26:11.531Z,990.05
2018-05-21T09:29:08.122Z,990.10
2018-05-21T09:30:08.943Z,989.95
2018-05-21T09:31:08.663Z,989.99
2018-05-21T09:32:08.553Z,989.99
2018-05-21T09:33:08.652Z,990.01
2018-05-21T09:34:08.902Z,990.04
2018-05-21T09:35:08.885Z,989.99
2018-05-21T09:36:09.041Z,989.94
2018-05-21T09:37:09.255Z,989.92
2018-05-21T09:38:10.123Z,989.93
2018-05-21T09:39:09.486Z,989.92
2018-05-21T09:40:10.246Z,989.89
2018-05-21T09:41:10.440Z,989.97
2018-05-21T09:42:10.321Z,990.00
2018-05-21T09:43:10.591Z,989.92
2018-05-21T09:44:10.766Z,990.01
2018-05-21T09:45:11.782Z,990.02
2018-05-21T09:46:11.271Z,990.03
2018-05-21T09:47:13.987Z,990.02
2018-05-21T09:48:11.265Z,990.07
2018-05-21T09:49:16.207Z,990.12
2018-05-21T09:50:11.710Z,990.14
2018-05-21T09:51:12.887Z,990.17
2018-05-21T09:52:12.459Z,990.15
2018-05-21T09:53:14.540Z,990.14
2018-05-21T09:54:12.616Z,990.18
2018-05-21T09:55:12.875Z,990.14
2018-05-21T09:56:14.139Z,990.28
2018-05-21T09:57:12.770Z,990.21
2018-05-21T09:58:12.932Z,990.26
2018-05-21T09:59:13.116Z,990.27
2018-05-21T10:00:13.289Z,990.25
2018-05-21T10:01:13.513Z,990.11
2018-05-21T10:02:13.721Z,990.10
2018-05-21T10:03:13.901Z,990.06
2018-05-21T10:04:13.886Z,990.10
2018-05-21T10:05:14.078Z,990.10
2018-05-21T10:06:14.289Z,990.14
2018-05-21T10:07:14.393Z,990.13
2018-05-21T10:08:14.760Z,990.10
2018-05-21T10:09:15.482Z,990.13
2018-05-21T10:10:15.285Z,990.14
2018-05-21T10:11:15.150Z,990.08
2018-05-21T10:12:15.298Z,990.05
2018-05-21T10:13:16.044Z,990.08
2018-05-21T10:14:15.663Z,989.91
2018-05-21T10:15:15.957Z,990.07
2018-05-21T10:16:16.121Z,990.07
2018-05-21T10:17:16.237Z,990.06
2018-05-21T10:19:16.839Z,989.98
2018-05-21T10:20:16.668Z,990.02
2018-05-21T10:21:16.941Z,990.03
2018-05-21T10:22:17.051Z,990.08
2018-05-21T10:23:17.286Z,990.09
2018-05-21T10:24:17.584Z,990.03
2018-05-21T10:25:17.934Z,989.99
2018-05-21T10:26:17.980Z,990.02
2018-05-21T10:27:18.046Z,990.04
2018-05-21T10:28:18.312Z,990.06
2018-05-21T10:29:18.500Z,990.02
2018-05-21T10:30:18.683Z,989.99
2018-05-21T10:31:18.765Z,990.05
2018-05-21T10:32:19.067Z,990.03
2018-05-21T10:33:19.187Z,989.97
2018-05-21T10:34:19.462Z,990.02
2018-05-21T10:35:20.907Z,990.00
2018-05-21T10:36:24.462Z,989.95
2018-05-21T10:37:21.737Z,990.01
2018-05-21T10:38:20.288Z,990.01
2018-05-21T10:39:20.517Z,990.13
2018-05-21T10:40:21.390Z,990.44
2018-05-21T10:41:20.947Z,990.72
2018-05-21T10:42:21.001Z,990.82
2018-05-21T10:43:21.534Z,990.90
2018-05-21T10:44:21.473Z,990.94
2018-05-21T10:45:21.547Z,991.06
2018-05-21T10:46:21.537Z,991.18
2018-05-21T10:47:21.838Z,991.37
2018-05-21T10:49:22.092Z,991.74
2018-05-21T10:50:22.501Z,991.85
2018-05-21T10:51:22.480Z,991.98
2018-05-21T10:52:22.676Z,992.09
2018-05-21T10:53:22.783Z,992.11
2018-05-21T10:54:23.765Z,992.14
2018-05-21T10:55:23.228Z,992.22
2018-05-21T10:56:23.471Z,992.03
2018-05-21T10:57:24.652Z,992.08
2018-05-21T10:58:23.894Z,992.01
2018-05-21T10:59:23.903Z,991.85
2018-05-21T11:00:24.217Z,991.73
2018-05-21T11:01:24.286Z,991.55
2018-05-21T11:02:24.405Z,991.54
2018-05-21T11:03:24.922Z,991.32
2018-05-21T11:04:25.252Z,991.30
2018-05-21T11:05:24.920Z,991.25
2018-05-21T11:06:25.039Z,991.18
2018-05-21T11:07:25.343Z,991.20
2018-05-21T11:08:25.774Z,991.21
2018-05-21T11:09:25.783Z,991.01
2018-05-21T11:11:31.258Z,990.86
2018-05-21T11:12:27.100Z,990.78
2018-05-21T11:13:27.812Z,990.73
2018-05-21T11:14:27.327Z,990.69
2018-05-21T11:15:26.936Z,990.74
2018-05-21T11:16:27.344Z,990.64
2018-05-21T11:17:27.507Z,990.67
2018-05-21T11:18:27.677Z,990.57
2018-05-21T11:19:27.617Z,990.55
2018-05-21T11:20:29.053Z,990.47
2018-05-21T11:21:28.063Z,990.46
2018-05-21T11:22:28.226Z,990.44
2018-05-21T11:23:28.466Z,990.53
2018-05-21T11:24:29.355Z,990.43
2018-05-21T11:25:29.607Z,990.40
2018-05-21T11:26:29.048Z,990.49
2018-05-21T11:27:29.384Z,990.43
2018-05-21T11:28:29.479Z,990.47
2018-05-21T11:29:30.179Z,990.45
2018-05-21T11:30:29.787Z,990.41
2018-05-21T11:31:29.903Z,990.36
2018-05-21T11:32:31.173Z,990.30
2018-05-21T11:33:30.246Z,990.28
2018-05-21T11:34:30.357Z,990.21
2018-05-21T11:35:30.631Z,990.17
2018-05-21T11:36:30.882Z,990.20
2018-05-21T11:37:30.941Z,990.13
2018-05-21T11:38:31.159Z,990.17
2018-05-21T11:39:31.373Z,990.16
2018-05-21T11:40:31.493Z,990.09
2018-05-21T11:41:31.693Z,989.96
2018-05-21T11:42:31.920Z,990.07
2018-05-21T11:43:32.027Z,990.06
2018-05-21T11:44:32.233Z,990.02
2018-05-21T11:45:32.418Z,990.03
2018-05-21T11:46:32.755Z,990.06
2018-05-21T11:47:32.683Z,990.08
2018-05-21T11:48:32.869Z,990.07
2018-05-21T11:49:33.066Z,990.04
2018-05-21T11:50:33.302Z,989.98
2018-05-21T11:51:33.391Z,990.10
2018-05-21T11:52:33.894Z,990.15
2018-05-21T11:53:33.739Z,990.10
2018-05-21T11:54:33.930Z,990.09
2018-05-21T11:55:35.092Z,990.05
2018-05-21T11:56:34.256Z,990.07
2018-05-21T11:57:34.501Z,990.07
2018-05-21T11:58:34.660Z,990.05
2018-05-21T11:59:34.873Z,990.04
2018-05-21T12:00:34.996Z,990.00
2018-05-21T12:01:35.244Z,990.04
2018-05-21T12:02:35.534Z,990.00
2018-05-21T12:03:35.553Z,990.00
2018-05-21T12:04:35.803Z,990.04
2018-05-21T12:05:35.879Z,990.01
2018-05-21T12:06:36.043Z,990.01
2018-05-21T12:07:36.654Z,990.01
2018-05-21T12:08:48.380Z,989.96
2018-05-21T12:09:42.689Z,989.92
2018-05-21T12:10:37.334Z,989.91
2018-05-21T12:11:37.412Z,989.96
2018-05-21T12:12:37.142Z,989.97
2018-05-21T12:13:37.407Z,989.99
2018-05-21T12:14:37.493Z,989.81
2018-05-21T12:15:37.617Z,989.51
2018-05-21T12:16:37.921Z,989.43
2018-05-21T12:17:38.137Z,989.28
2018-05-21T12:18:38.354Z,989.23
2018-05-21T12:19:38.545Z,989.17
2018-05-21T12:20:38.745Z,989.19
2018-05-21T12:21:38.922Z,989.13
2018-05-21T12:22:39.155Z,989.17
2018-05-21T12:23:39.288Z,989.13
2018-05-21T12:24:39.495Z,989.14
2018-05-21T12:25:39.663Z,989.19
2018-05-21T12:26:39.900Z,989.19
2018-05-21T12:27:40.040Z,989.13
2018-05-21T12:28:40.168Z,989.21
2018-05-21T12:29:40.320Z,989.21
2018-05-21T12:30:40.529Z,989.20
2018-05-21T12:31:40.832Z,989.18
2018-05-21T12:32:40.995Z,989.13
2018-05-21T12:33:41.169Z,989.10
2018-05-21T12:34:41.388Z,989.12
2018-05-21T12:35:41.582Z,989.03
2018-05-21T12:36:44.349Z,989.08
2018-05-21T12:37:42.987Z,989.06
2018-05-21T12:38:42.779Z,989.06
2018-05-21T12:39:42.637Z,989.05
2018-05-21T12:40:42.596Z,988.99
2018-05-21T12:41:42.545Z,988.99
2018-05-21T12:42:42.638Z,989.00
2018-05-21T12:43:42.900Z,989.02
2018-05-21T12:44:43.499Z,989.00
2018-05-21T12:45:43.206Z,988.97
2018-05-21T12:46:43.440Z,988.98
2018-05-21T12:47:43.737Z,988.94
2018-05-21T12:48:43.950Z,988.86
2018-05-21T12:49:44.051Z,988.90
2018-05-21T12:50:44.235Z,988.82
2018-05-21T12:51:44.350Z,988.86
2018-05-21T12:52:44.469Z,988.85
2018-05-21T12:53:44.806Z,988.84
2018-05-21T12:54:45.073Z,988.82
2018-05-21T12:55:45.178Z,988.84
2018-05-21T12:56:45.212Z,988.82
2018-05-21T12:57:50.531Z,988.86
2018-05-21T12:58:45.664Z,988.83
2018-05-21T12:59:47.089Z,988.83
2018-05-21T13:00:46.273Z,988.77
2018-05-21T13:01:46.758Z,988.84
2018-05-21T13:02:46.375Z,988.77
2018-05-21T13:03:46.562Z,988.74
2018-05-21T13:04:46.645Z,988.73
2018-05-21T13:05:46.908Z,988.77
2018-05-21T13:06:47.141Z,988.74
2018-05-21T13:07:47.351Z,988.73
2018-05-21T13:08:47.547Z,988.65
2018-05-21T13:09:47.832Z,988.66
2018-05-21T13:10:48.045Z,988.70
2018-05-21T13:11:48.171Z,988.68
2018-05-21T13:12:48.231Z,988.66
2018-05-21T13:13:48.500Z,988.61
2018-05-21T13:14:48.651Z,988.56
2018-05-21T13:15:49.151Z,988.59
2018-05-21T13:16:49.896Z,988.58
2018-05-21T13:17:49.107Z,988.56
2018-05-21T13:18:49.464Z,988.49
2018-05-21T13:19:49.564Z,988.51
2018-05-21T13:20:49.772Z,988.54
2018-05-21T13:21:49.838Z,988.58
2018-05-21T13:22:50.196Z,988.47
2018-05-21T13:23:50.346Z,988.53
2018-05-21T13:24:50.526Z,988.49
2018-05-21T13:25:50.820Z,988.49
2018-05-21T13:26:50.983Z,988.51
2018-05-21T13:27:51.107Z,988.49
2018-05-21T13:28:52.120Z,988.55
2018-05-21T13:29:51.458Z,988.48
2018-05-21T13:30:51.624Z,988.51
2018-05-21T13:31:51.807Z,988.48
2018-05-21T13:32:52.166Z,988.43
2018-05-21T13:33:52.425Z,988.50
2018-05-21T13:34:52.366Z,988.35
2018-05-21T13:35:52.632Z,988.37
2018-05-21T13:36:52.856Z,988.38
2018-05-21T13:37:52.968Z,988.33
2018-05-21T13:38:53.205Z,988.36
2018-05-21T13:39:53.340Z,988.34
2018-05-21T13:40:54.143Z,988.26
2018-05-21T13:41:53.722Z,988.22
2018-05-21T13:42:53.923Z,988.29
2018-05-21T13:43:53.976Z,988.30
2018-05-21T13:44:54.212Z,988.29
2018-05-21T13:45:54.298Z,988.24
2018-05-21T13:46:54.618Z,988.26
2018-05-21T13:47:54.915Z,988.22
2018-05-21T13:48:55.054Z,988.20
2018-05-21T13:49:55.119Z,988.21
2018-05-21T13:50:55.223Z,988.21
2018-05-21T13:51:55.406Z,988.20
2018-05-21T13:52:55.780Z,988.19
2018-05-21T13:53:55.899Z,988.17
2018-05-21T13:54:55.930Z,988.13
2018-05-21T13:55:56.160Z,988.12
2018-05-21T13:56:56.359Z,988.09
2018-05-21T13:57:56.469Z,988.09
2018-05-21T13:58:56.838Z,988.07
2018-05-21T13:59:57.013Z,988.08
2018-05-21T14:00:57.028Z,988.10
2018-05-21T14:01:57.243Z,988.04
2018-05-21T14:03:02.637Z,987.95
2018-05-21T14:03:57.546Z,988.01
2018-05-21T14:04:57.668Z,988.01
2018-05-21T14:05:57.880Z,987.97
2018-05-21T14:06:58.205Z,987.97
2018-05-21T14:07:58.260Z,988.00
2018-05-21T14:08:58.466Z,988.01
2018-05-21T14:09:58.665Z,987.92
2018-05-21T14:10:58.938Z,987.97
2018-05-21T14:11:59.049Z,987.89
2018-05-21T14:13:01.277Z,987.91
2018-05-21T14:13:59.485Z,987.86
2018-05-21T14:14:59.618Z,987.86
2018-05-21T14:15:59.864Z,987.98
2018-05-21T14:17:00.065Z,987.93
2018-05-21T14:18:00.220Z,987.89
2018-05-21T14:19:00.506Z,987.96
2018-05-21T14:20:00.629Z,987.96
2018-05-21T14:21:00.639Z,987.98
2018-05-21T14:22:01.173Z,987.94
2018-05-21T14:23:01.679Z,987.87
2018-05-21T14:24:01.399Z,987.91
2018-05-21T14:25:01.538Z,987.87
2018-05-21T14:26:01.700Z,987.86
2018-05-21T14:27:01.767Z,987.85
2018-05-21T14:28:02.054Z,987.84
2018-05-21T14:29:02.145Z,987.85
2018-05-21T14:30:02.345Z,987.83
2018-05-21T14:31:02.552Z,987.85
2018-05-21T14:32:02.718Z,987.82
2018-05-21T14:33:03.466Z,987.81
2018-05-21T14:34:04.155Z,987.85
2018-05-21T14:35:05.759Z,987.82
2018-05-21T14:36:03.442Z,987.79
2018-05-21T14:37:04.485Z,987.77
2018-05-21T14:38:04.039Z,987.76
2018-05-21T14:39:03.940Z,987.78
2018-05-21T14:40:04.084Z,987.77
2018-05-21T14:41:04.251Z,987.71
2018-05-21T14:42:04.493Z,987.77
2018-05-21T14:43:04.744Z,987.80
2018-05-21T14:44:04.926Z,987.70
2018-05-21T14:45:06.004Z,987.82
2018-05-21T14:46:05.217Z,987.75
2018-05-21T14:47:05.476Z,987.72
2018-05-21T14:48:05.691Z,987.69
2018-05-21T14:49:05.815Z,987.72
2018-05-21T14:50:05.977Z,987.72
2018-05-21T14:51:06.223Z,987.63
2018-05-21T14:52:06.314Z,987.66
2018-05-21T14:53:06.517Z,987.68
2018-05-21T14:54:06.643Z,987.62
2018-05-21T14:55:07.807Z,987.56
2018-05-21T14:56:07.259Z,987.60
2018-05-21T14:57:07.232Z,987.59
2018-05-21T14:59:08.358Z,987.61
2018-05-21T15:00:07.792Z,987.54
2018-05-21T15:01:08.146Z,987.50
2018-05-21T15:02:08.235Z,987.46
2018-05-21T15:03:08.456Z,987.43
2018-05-21T15:04:08.591Z,987.49
2018-05-21T15:05:08.830Z,987.45
2018-05-21T15:06:09.486Z,987.48
2018-05-21T15:07:09.409Z,987.52
2018-05-21T15:09:09.509Z,987.52
2018-05-21T15:10:09.810Z,987.44
2018-05-21T15:11:11.078Z,987.50
2018-05-21T15:12:15.596Z,987.45
2018-05-21T15:13:14.511Z,987.53
2018-05-21T15:14:10.278Z,987.43
2018-05-21T15:15:10.785Z,987.46
2018-05-21T15:16:10.884Z,987.37
2018-05-21T15:17:10.761Z,987.35
2018-05-21T15:18:10.853Z,987.42
2018-05-21T15:19:11.380Z,987.38
2018-05-21T15:20:11.823Z,987.35
2018-05-21T15:21:11.700Z,987.31
2018-05-21T15:22:11.796Z,987.26
2018-05-21T15:23:11.851Z,987.31
2018-05-21T15:24:12.381Z,987.21
2018-05-21T15:25:12.604Z,987.17
2018-05-21T15:26:13.123Z,987.13
2018-05-21T15:27:12.690Z,987.18
2018-05-21T15:28:12.844Z,987.11
2018-05-21T15:29:13.333Z,987.06
2018-05-21T15:30:13.219Z,987.16
2018-05-21T15:31:13.485Z,987.13
2018-05-21T15:32:14.507Z,987.14
2018-05-21T15:33:13.779Z,987.10
2018-05-21T15:34:13.999Z,987.14
2018-05-21T15:35:14.055Z,987.16
2018-05-21T15:36:14.392Z,987.14
2018-05-21T15:37:14.480Z,987.13
2018-05-21T15:38:14.608Z,987.17
2018-05-21T15:39:14.964Z,987.17
2018-05-21T15:40:14.969Z,987.14
2018-05-21T15:41:15.079Z,987.19
2018-05-21T15:42:15.212Z,987.14
2018-05-21T15:43:15.595Z,987.19
2018-05-21T15:44:15.742Z,987.21
2018-05-21T15:45:15.847Z,987.14
2018-05-21T15:46:16.706Z,987.06
2018-05-21T15:47:16.327Z,987.05
2018-05-21T15:48:17.299Z,986.97
2018-05-21T15:49:16.617Z,986.91
2018-05-21T15:50:16.849Z,987.02
2018-05-21T15:51:16.971Z,986.96
2018-05-21T15:52:17.090Z,986.87
2018-05-21T15:53:17.286Z,986.84
2018-05-21T15:54:17.538Z,986.83
2018-05-21T15:55:17.863Z,986.86
2018-05-21T15:56:17.738Z,986.87
2018-05-21T15:57:18.370Z,986.89
2018-05-21T15:58:18.174Z,986.91
2018-05-21T15:59:18.445Z,986.96
2018-05-21T16:00:18.570Z,986.90
2018-05-21T16:01:18.647Z,986.93
2018-05-21T16:02:19.119Z,986.94
2018-05-21T16:03:19.067Z,986.91
2018-05-21T16:04:19.217Z,986.88
2018-05-21T16:05:19.494Z,986.86
2018-05-21T16:06:19.511Z,986.91
2018-05-21T16:07:19.753Z,986.92
2018-05-21T16:08:19.976Z,986.91
2018-05-21T16:09:20.236Z,986.93
2018-05-21T16:10:20.273Z,986.89
2018-05-21T16:11:20.382Z,986.84
2018-05-21T16:12:20.718Z,986.87
2018-05-21T16:13:21.017Z,986.84
2018-05-21T16:14:21.127Z,986.81
2018-05-21T16:15:21.202Z,986.80
2018-05-21T16:16:21.348Z,986.81
2018-05-21T16:17:21.583Z,986.79
2018-05-21T16:18:21.639Z,986.77
2018-05-21T16:19:22.118Z,986.77
2018-05-21T16:20:22.076Z,986.78
2018-05-21T16:21:22.314Z,986.71
2018-05-21T16:22:22.454Z,986.75
2018-05-21T16:23:22.747Z,986.74
2018-05-21T16:24:22.811Z,986.71
2018-05-21T16:25:22.921Z,986.67
2018-05-21T16:26:24.218Z,986.73
2018-05-21T16:27:23.473Z,986.68
2018-05-21T16:28:23.589Z,986.68
2018-05-21T16:29:23.663Z,986.72
2018-05-21T16:30:23.932Z,986.71
2018-05-21T16:31:24.206Z,986.70
2018-05-21T16:32:24.290Z,986.67
2018-05-21T16:33:25.384Z,986.64
2018-05-21T16:34:25.018Z,986.69
2018-05-21T16:35:24.989Z,986.68
2018-05-21T16:36:25.638Z,986.60
2018-05-21T16:37:24.999Z,986.57
2018-05-21T16:38:25.198Z,986.56
2018-05-21T16:39:25.360Z,986.59
2018-05-21T16:40:25.652Z,986.54
2018-05-21T16:41:26.715Z,986.52
2018-05-21T16:42:26.031Z,986.47
2018-05-21T16:43:26.160Z,986.48
2018-05-21T16:44:26.530Z,986.45
2018-05-21T16:45:26.815Z,986.48
2018-05-21T16:46:27.075Z,986.50
2018-05-21T16:47:27.199Z,986.46
2018-05-21T16:48:27.124Z,986.50
2018-05-21T16:49:27.585Z,986.48
2018-05-21T16:50:27.676Z,986.48
2018-05-21T16:51:28.926Z,986.54
2018-05-21T16:52:28.020Z,986.51
2018-05-21T16:53:28.171Z,986.50
2018-05-21T16:54:28.291Z,986.54
2018-05-21T16:55:28.645Z,986.52
2018-05-21T16:56:28.670Z,986.49
2018-05-21T16:57:29.308Z,986.49
2018-05-21T16:58:29.435Z,986.46
2018-05-21T16:59:29.323Z,986.42
2018-05-21T17:00:29.669Z,986.41
2018-05-21T17:01:29.627Z,986.45
2018-05-21T17:02:29.695Z,986.41
2018-05-21T17:03:30.120Z,986.41
2018-05-21T17:04:30.091Z,986.44
2018-05-21T17:05:30.084Z,986.51
2018-05-21T17:06:30.498Z,986.50
2018-05-21T17:07:33.751Z,986.45
2018-05-21T17:08:31.033Z,986.49
2018-05-21T17:09:32.971Z,986.45
2018-05-21T17:10:31.191Z,986.43
2018-05-21T17:11:31.329Z,986.45
2018-05-21T17:12:31.400Z,986.42
2018-05-21T17:13:31.525Z,986.47
2018-05-21T17:14:32.704Z,986.42
2018-05-21T17:15:35.305Z,986.44
2018-05-21T17:16:32.446Z,986.45
2018-05-21T17:17:32.829Z,986.42
2018-05-21T17:18:33.039Z,986.48
2018-05-21T17:19:33.111Z,986.43
2018-05-21T17:20:33.917Z,986.45
2018-05-21T17:21:33.210Z,986.42
2018-05-21T17:22:34.415Z,986.45
2018-05-21T17:23:33.542Z,986.41
2018-05-21T17:24:34.334Z,986.39
2018-05-21T17:25:34.359Z,986.42
2018-05-21T17:26:34.293Z,986.38
2018-05-21T17:27:34.282Z,986.43
2018-05-21T17:28:34.492Z,986.42
2018-05-21T17:29:34.657Z,986.43
2018-05-21T17:30:34.968Z,986.39
2018-05-21T17:31:35.865Z,986.41
2018-05-21T17:32:35.055Z,986.37
2018-05-21T17:33:35.297Z,986.38
2018-05-21T17:34:36.427Z,986.39
2018-05-21T17:35:36.157Z,986.38
2018-05-21T17:36:35.782Z,986.39
2018-05-21T17:37:36.218Z,986.40
2018-05-21T17:38:36.222Z,986.38
2018-05-21T17:39:36.409Z,986.37
2018-05-21T17:40:36.548Z,986.34
2018-05-21T17:41:36.591Z,986.36
2018-05-21T17:42:36.795Z,986.36
2018-05-21T17:43:36.966Z,986.40
2018-05-21T17:44:37.252Z,986.30
2018-05-21T17:45:37.345Z,986.30
2018-05-21T17:46:37.815Z,986.31
2018-05-21T17:47:38.142Z,986.31
2018-05-21T17:48:38.040Z,986.38
2018-05-21T17:50:38.621Z,986.28
2018-05-21T17:51:39.133Z,986.33
2018-05-21T17:52:39.042Z,986.37
2018-05-21T17:53:38.944Z,986.34
2018-05-21T17:54:40.067Z,986.32
2018-05-21T17:55:39.338Z,986.29
2018-05-21T17:56:39.602Z,986.38
2018-05-21T17:57:39.528Z,986.34
2018-05-21T17:58:40.117Z,986.30
2018-05-21T17:59:40.386Z,986.36
2018-05-21T18:01:40.771Z,986.36
2018-05-21T18:02:41.246Z,986.34
2018-05-21T18:03:40.737Z,986.36
2018-05-21T18:04:40.833Z,986.35
2018-05-21T18:05:40.816Z,986.38
2018-05-21T18:06:41.513Z,986.31
2018-05-21T18:07:42.473Z,986.38
2018-05-21T18:08:41.499Z,986.38
2018-05-21T18:09:41.548Z,986.27
2018-05-21T18:11:42.409Z,986.34
2018-05-21T18:12:42.325Z,986.31
2018-05-21T18:13:42.577Z,986.33
2018-05-21T18:14:42.884Z,986.38
2018-05-21T18:15:42.840Z,986.38
2018-05-21T18:16:42.936Z,986.41
2018-05-21T18:18:47.901Z,986.40
2018-05-21T18:21:55.562Z,986.41
2018-05-21T18:22:17.532Z,986.42
2018-05-21T18:35:05.124Z,986.47
2018-05-21T18:35:29.145Z,986.43
2018-05-21T18:36:29.085Z,986.47
2018-05-21T18:37:30.076Z,986.50
2018-05-21T18:38:29.594Z,986.50
2018-05-21T18:39:30.561Z,986.47
2018-05-21T18:40:30.283Z,986.46
2018-05-21T18:41:30.825Z,986.46
2018-05-21T18:42:31.393Z,986.46
2018-05-21T18:43:31.604Z,986.44
2018-05-21T18:44:30.179Z,986.45
2018-05-21T18:45:29.780Z,986.49
2018-05-21T18:46:28.715Z,986.48
2018-05-21T18:47:33.275Z,986.39
2018-05-21T18:48:28.936Z,986.45
2018-05-21T18:49:30.119Z,986.43
2018-05-21T18:50:29.363Z,986.43
2018-05-21T18:51:34.514Z,986.42
2018-05-21T18:52:32.446Z,986.43
2018-05-21T20:07:03.860Z,986.75
2018-05-21T20:10:12.563Z,986.75
2018-05-21T20:11:08.466Z,986.71
2018-05-21T20:12:03.597Z,986.71
2018-05-21T20:13:01.975Z,986.74
2018-05-21T20:16:03.585Z,986.71
